Time;durP1;ratioP1;P1;durP2;ratioP2;P2;SDS_P1;SDS_P2;PMS_P1;PMS_P2;Temp;Humidity;BMP_temperature;BMP_pressure;BME280_temperature;BME280_humidity;BME280_pressure;Samples;Min_cycle;Max_cycle;Signal;HPM_P1;HPM_P2
2021/01/29 00:00:25;;;;;;;7.93;4.83;;;;;;;-0.42;79.50;99501.34;4941068;29;20119;-72
2021/01/29 00:02:51;;;;;;;6.32;3.50;;;;;;;-0.54;79.89;99520.13;4941132;29;20036;-72
2021/01/29 00:05:19;;;;;;;8.67;4.23;;;;;;;-0.64;80.30;99516.44;4943347;29;20036;-71
2021/01/29 00:07:44;;;;;;;12.13;5.50;;;;;;;-0.70;80.18;99503.34;4944390;28;20553;-72
2021/01/29 00:10:11;;;;;;;8.40;4.63;;;;;;;-0.78;80.25;99510.09;4942904;29;20126;-71
2021/01/29 00:12:36;;;;;;;9.30;6.17;;;;;;;-0.85;80.93;99505.59;4933597;29;20043;-72
2021/01/29 00:15:07;;;;;;;7.17;4.67;;;;;;;-0.90;81.18;99505.47;4940758;29;20043;-72
2021/01/29 00:17:33;;;;;;;7.57;4.33;;;;;;;-0.98;80.69;99497.53;4932887;29;20543;-72
2021/01/29 00:19:58;;;;;;;12.17;6.70;;;;;;;-0.99;81.68;99502.69;4940611;29;20121;-72
2021/01/29 00:22:24;;;;;;;8.30;5.33;;;;;;;-1.00;81.36;99499.19;4941140;29;20174;-71
2021/01/29 00:24:49;;;;;;;9.00;5.07;;;;;;;-1.00;81.38;99499.19;4940753;29;20035;-71
2021/01/29 00:27:15;;;;;;;8.43;5.30;;;;;;;-0.96;82.30;99498.44;4942550;29;20046;-72
2021/01/29 00:29:40;;;;;;;9.23;5.30;;;;;;;-0.93;82.13;99506.28;4944038;29;20035;-71
2021/01/29 00:32:05;;;;;;;7.80;4.50;;;;;;;-0.90;81.93;99502.88;4943220;29;20428;-72
2021/01/29 00:34:31;;;;;;;11.00;7.20;;;;;;;-0.90;81.85;99498.56;4940797;29;20386;-72
2021/01/29 00:36:56;;;;;;;8.73;5.23;;;;;;;-0.88;82.75;99496.91;4940453;29;20035;-72
2021/01/29 00:39:22;;;;;;;9.93;6.23;;;;;;;-0.85;82.53;99484.88;4943484;28;20043;-71
2021/01/29 00:41:47;;;;;;;11.10;6.80;;;;;;;-0.82;82.65;99487.53;4944020;28;20059;-71
2021/01/29 00:44:12;;;;;;;9.03;5.10;;;;;;;-0.83;82.73;99491.84;4940091;29;20050;-72
2021/01/29 00:46:37;;;;;;;8.30;5.33;;;;;;;-0.86;83.03;99491.78;4940888;29;20043;-72
2021/01/29 00:49:03;;;;;;;11.33;5.53;;;;;;;-0.88;82.69;99491.72;4939638;29;20038;-72
2021/01/29 00:51:28;;;;;;;13.13;7.60;;;;;;;-0.89;82.39;99479.63;4943789;28;20396;-72
2021/01/29 00:53:53;;;;;;;12.33;7.60;;;;;;;-0.90;82.75;99485.63;4942454;28;20457;-72
2021/01/29 00:56:30;;;;;;;9.70;5.77;;;;;;;-0.90;82.91;99484.75;4938879;28;20036;-72
2021/01/29 00:59:07;;;;;;;11.10;6.77;;;;;;;-0.84;82.28;99478.84;4941024;29;20174;-72
2021/01/29 01:01:55;;;;;;;9.10;5.80;;;;;;;-0.79;82.12;99477.22;4942324;28;20035;-72
2021/01/29 01:04:20;;;;;;;8.77;5.27;;;;;;;-0.74;82.00;99473.91;4940947;28;20093;-71
2021/01/29 01:06:46;;;;;;;9.17;5.63;;;;;;;-0.65;82.48;99467.19;4949662;28;20127;-72
2021/01/29 01:09:30;;;;;;;10.97;6.87;;;;;;;-0.61;82.05;99477.63;4940312;29;20563;-71
2021/01/29 01:11:55;;;;;;;11.57;6.57;;;;;;;-0.52;82.67;99472.66;4940125;29;20028;-72
2021/01/29 01:14:39;;;;;;;10.90;6.10;;;;;;;-0.38;82.26;99462.56;4940400;29;20093;-72
2021/01/29 01:17:31;;;;;;;9.43;6.13;;;;;;;-0.25;82.29;99461.09;4938824;29;20043;-72
2021/01/29 01:20:06;;;;;;;8.80;6.15;;;;;;;-0.14;81.97;99457.00;4935772;29;20040;-72
2021/01/29 01:22:31;;;;;;;10.13;5.03;;;;;;;-0.05;82.35;99453.72;4940058;29;20040;-71
2021/01/29 01:25:08;;;;;;;8.13;4.90;;;;;;;0.08;81.40;99458.31;4936140;29;20031;-71
2021/01/29 01:27:33;;;;;;;8.90;5.70;;;;;;;0.16;81.51;99455.84;4940196;29;20078;-71
2021/01/29 01:30:28;;;;;;;10.63;6.07;;;;;;;0.23;81.08;99452.50;4942074;29;20039;-72
2021/01/29 01:32:54;;;;;;;8.90;4.90;;;;;;;0.11;81.66;99457.50;4943461;28;20036;-72
2021/01/29 01:35:38;;;;;;;11.00;5.50;;;;;;;0.15;81.32;99464.47;4939664;29;20123;-72
2021/01/29 01:38:05;;;;;;;11.47;4.90;;;;;;;0.15;80.46;99464.47;4940288;29;20488;-71
2021/01/29 01:40:44;;;;;;;9.57;5.63;;;;;;;0.16;80.70;99467.09;4941734;29;20043;-71
2021/01/29 01:43:13;;;;;;;10.87;5.60;;;;;;;0.15;80.82;99469.66;4924666;29;20514;-72
2021/01/29 01:46:00;;;;;;;8.53;5.43;;;;;;;0.05;80.34;99470.31;4933124;29;20070;-72
2021/01/29 01:48:48;;;;;;;8.80;5.77;;;;;;;0.08;81.26;99472.97;4938413;29;20037;-72
2021/01/29 01:51:38;;;;;;;9.27;6.03;;;;;;;0.16;81.32;99463.63;4939658;29;20046;-71
2021/01/29 01:54:17;;;;;;;8.43;5.67;;;;;;;0.17;80.57;99453.25;4935551;29;20043;-71
2021/01/29 01:56:49;;;;;;;7.93;5.27;;;;;;;0.20;81.18;99447.25;4939466;29;20040;-72
2021/01/29 01:59:48;;;;;;;11.47;5.43;;;;;;;0.27;81.10;99450.84;4939242;29;20048;-72
2021/01/29 02:02:17;;;;;;;7.87;4.47;;;;;;;0.34;80.93;99456.19;4941165;29;20397;-72
2021/01/29 02:05:19;;;;;;;10.07;5.93;;;;;;;0.36;80.36;99449.28;4936658;29;20576;-71
2021/01/29 02:08:16;;;;;;;7.97;4.87;;;;;;;0.37;80.68;99453.63;4961320;28;20031;-72
2021/01/29 02:11:01;;;;;;;9.73;5.70;;;;;;;0.35;80.90;99442.34;4933729;29;20051;-71
2021/01/29 02:13:36;;;;;;;9.50;5.40;;;;;;;0.42;80.60;99430.34;4945697;29;20059;-71
2021/01/29 02:16:31;;;;;;;11.03;7.10;;;;;;;0.52;80.92;99433.97;4944153;29;20069;-72
2021/01/29 02:19:31;;;;;;;10.23;5.83;;;;;;;0.53;81.27;99425.34;4941310;29;20047;-72
2021/01/29 02:22:26;;;;;;;11.63;6.03;;;;;;;0.58;80.07;99419.38;4937895;29;20062;-72
2021/01/29 02:25:35;;;;;;;11.27;6.40;;;;;;;0.54;80.50;99409.78;4949990;29;20050;-72
2021/01/29 02:28:28;;;;;;;10.57;6.10;;;;;;;0.58;80.70;99402.94;4940237;29;20063;-72
2021/01/29 02:31:32;;;;;;;12.53;6.63;;;;;;;0.62;80.08;99405.56;4938371;29;20038;-72
2021/01/29 02:34:17;;;;;;;9.40;6.73;;;;;;;0.63;79.90;99422.06;4949256;29;20059;-72
2021/01/29 02:37:29;;;;;;;9.97;6.07;;;;;;;0.63;80.09;99420.31;4941025;29;20035;-72
2021/01/29 02:40:31;;;;;;;8.23;4.80;;;;;;;0.69;80.21;99416.94;4940183;29;20036;-72
2021/01/29 02:43:10;;;;;;;7.67;5.43;;;;;;;0.73;80.22;99415.25;4947284;29;20040;-72
2021/01/29 02:45:51;;;;;;;10.03;4.93;;;;;;;0.74;79.84;99423.09;4939878;29;20127;-72
2021/01/29 02:49:02;;;;;;;8.25;5.50;;;;;;;0.67;79.55;99423.81;4937755;29;20028;-72
2021/01/29 02:52:01;;;;;;;8.00;5.40;;;;;;;0.72;79.62;99431.69;4939503;29;20135;-72
2021/01/29 02:55:28;;;;;;;10.18;5.55;;;;;;;0.76;79.68;99429.19;4930350;29;20498;-71
2021/01/29 02:58:32;;;;;;;10.77;6.30;;;;;;;0.78;79.49;99422.25;4938182;29;20131;-71
2021/01/29 03:01:35;;;;;;;11.13;6.47;;;;;;;0.78;78.70;99419.66;4938619;29;20048;-72
2021/01/29 03:04:20;;;;;;;11.80;6.87;;;;;;;0.74;79.22;99411.81;4935812;29;20078;-72
2021/01/29 03:07:00;;;;;;;10.33;6.63;;;;;;;0.75;nan;99398.84;4941706;28;20042;-72
2021/01/29 03:09:34;;;;;;;11.02;6.95;;;;;;;0.71;79.16;99393.56;4940854;29;20039;-72
2021/01/29 03:12:43;;;;;;;8.63;6.23;;;;;;;0.72;79.51;99391.00;4944254;29;20046;-71
2021/01/29 03:15:30;;;;;;;11.73;6.40;;;;;;;0.81;79.23;99380.78;4941679;29;20097;-72
2021/01/29 03:18:32;;;;;;;9.57;6.03;;;;;;;0.80;78.72;99379.00;4943577;29;20050;-71
2021/01/29 03:21:30;;;;;;;12.68;8.40;;;;;;;0.84;79.24;99374.75;4942810;29;20093;-72
2021/01/29 03:24:28;;;;;;;10.67;6.37;;;;;;;0.90;78.84;99374.84;4943405;29;20090;-71
2021/01/29 03:27:39;;;;;;;12.90;6.77;;;;;;;0.94;79.17;99361.00;4943232;29;20053;-72
2021/01/29 03:30:33;;;;;;;11.30;6.43;;;;;;;0.88;78.18;99351.41;4944519;29;20045;-72
2021/01/29 03:33:20;;;;;;;9.87;6.70;;;;;;;0.87;78.83;99336.69;4942652;29;20042;-71
2021/01/29 03:36:08;;;;;;;11.63;7.13;;;;;;;0.95;78.36;99338.53;4941761;29;20082;-71
2021/01/29 03:39:00;;;;;;;10.23;5.93;;;;;;;0.97;78.54;99339.41;4944872;29;20058;-72
2021/01/29 03:41:50;;;;;;;10.00;5.93;;;;;;;0.94;78.19;99339.38;4941291;29;20127;-71
2021/01/29 03:45:14;;;;;;;9.40;5.83;;;;;;;0.83;78.51;99337.50;4932282;29;20082;-72
2021/01/29 03:48:10;;;;;;;9.80;6.50;;;;;;;0.80;78.45;99339.19;4941715;28;20039;-72
2021/01/29 03:51:34;;;;;;;10.57;6.50;;;;;;;0.90;78.10;99328.06;4941340;29;20123;-72
2021/01/29 03:54:25;;;;;;;9.18;5.72;;;;;;;0.98;78.46;99325.56;4943547;29;20097;-72
2021/01/29 03:57:23;;;;;;;9.83;5.60;;;;;;;0.98;78.17;99330.78;4943346;29;20100;-72
2021/01/29 04:00:28;;;;;;;11.50;6.10;;;;;;;1.00;77.88;99326.47;4941838;29;20077;-71
2021/01/29 04:03:21;;;;;;;11.27;7.13;;;;;;;1.02;77.88;99316.94;4942975;29;20650;-74
2021/01/29 04:06:23;;;;;;;;;;;;;;;0.95;78.46;99320.34;4941866;29;20063;-73
2021/01/29 04:09:20;;;;;;;12.07;6.15;;;;;;;0.99;78.10;99324.72;4972639;28;19922;-72
2021/01/29 04:12:04;;;;;;;11.10;6.87;;;;;;;1.03;78.05;99318.72;4941230;29;20050;-72
2021/01/29 04:15:02;;;;;;;9.97;6.70;;;;;;;1.07;78.61;99310.09;4942839;29;20096;-72
2021/01/29 04:17:53;;;;;;;14.27;7.90;;;;;;;1.12;78.20;99308.41;4940962;29;20050;-71
2021/01/29 04:20:31;;;;;;;13.23;7.73;;;;;;;1.17;78.71;99306.75;4942625;29;20177;-72
2021/01/29 04:23:00;;;;;;;10.97;6.00;;;;;;;1.16;77.63;99304.16;4944176;29;20489;-72
2021/01/29 04:25:32;;;;;;;12.03;6.90;;;;;;;1.13;78.28;99304.09;4939139;29;20039;-72
2021/01/29 04:28:07;;;;;;;10.30;6.47;;;;;;;1.10;78.01;99299.72;4940832;29;20478;-72
2021/01/29 04:30:36;;;;;;;10.53;6.50;;;;;;;1.15;77.80;99305.84;4940580;29;20039;-72
2021/01/29 04:33:15;;;;;;;8.57;5.50;;;;;;;1.11;77.30;99298.91;4940721;29;20176;-70
2021/01/29 04:35:41;;;;;;;9.17;4.80;;;;;;;1.05;77.35;99285.84;4943675;29;20039;-71
2021/01/29 04:38:14;;;;;;;7.57;4.73;;;;;;;1.05;78.05;99283.25;4943101;28;20066;-71
2021/01/29 04:41:03;;;;;;;9.80;5.20;;;;;;;1.03;77.82;99271.94;4940541;29;20040;-72
2021/01/29 04:43:58;;;;;;;8.07;5.00;;;;;;;0.91;77.81;99261.41;4940612;29;20052;-72
2021/01/29 04:46:37;;;;;;;6.60;4.40;;;;;;;0.87;77.98;99256.16;4943112;29;20046;-72
2021/01/29 04:49:20;;;;;;;11.40;5.73;;;;;;;0.90;78.15;99241.47;4942351;29;20039;-72
2021/01/29 04:52:08;;;;;;;7.40;4.77;;;;;;;0.96;77.89;99238.94;4934088;29;20032;-71
2021/01/29 04:55:01;;;;;;;5.90;3.97;;;;;;;1.00;76.93;99230.34;4940630;29;20069;-71
2021/01/29 04:58:09;;;;;;;7.67;4.47;;;;;;;1.00;76.66;99220.81;4940370;29;20470;-72
2021/01/29 05:01:23;;;;;;;6.87;4.40;;;;;;;0.96;77.21;99215.56;4942208;28;20499;-72
2021/01/29 05:04:38;;;;;;;7.37;5.00;;;;;;;0.94;76.38;99214.66;4943327;29;20149;-72
2021/01/29 05:08:09;;;;;;;7.80;4.60;;;;;;;0.91;77.14;99214.63;4940627;29;20568;-72
2021/01/29 05:11:04;;;;;;;8.03;5.50;;;;;;;0.87;76.63;99206.81;4953799;28;20464;-72
2021/01/29 05:13:51;;;;;;;8.60;5.00;;;;;;;0.86;77.01;99199.88;4940229;28;20063;-72
2021/01/29 05:16:46;;;;;;;10.13;5.73;;;;;;;0.90;77.39;99197.31;4941979;28;20047;-72
2021/01/29 05:19:39;;;;;;;8.37;5.17;;;;;;;0.93;76.58;99184.38;4942866;28;20634;-69
2021/01/29 05:22:23;;;;;;;;;;;;;;;0.88;76.92;99169.59;4940922;28;20440;-69
2021/01/29 05:25:11;;;;;;;8.70;5.70;;;;;;;0.91;77.03;99165.28;4940192;29;20320;-69
2021/01/29 05:27:48;;;;;;;7.70;5.30;;;;;;;0.94;77.19;99167.91;4939979;29;20052;-69
2021/01/29 05:30:38;;;;;;;8.47;5.20;;;;;;;0.95;76.77;99151.50;4941284;28;20058;-69
2021/01/29 05:33:54;;;;;;;8.63;5.93;;;;;;;0.95;76.97;99135.91;4939895;29;20070;-69
2021/01/29 05:36:38;;;;;;;8.43;5.00;;;;;;;0.95;77.01;99138.50;4942715;29;20493;-69
2021/01/29 05:39:22;;;;;;;7.77;4.77;;;;;;;0.94;76.50;99153.19;4950464;28;20511;-69
2021/01/29 05:42:17;;;;;;;9.27;5.27;;;;;;;0.92;76.05;99148.84;4939959;29;20051;-69
2021/01/29 05:45:03;;;;;;;10.70;5.00;;;;;;;0.96;76.71;99141.09;4939590;29;20097;-69
2021/01/29 05:47:58;;;;;;;8.43;5.80;;;;;;;0.95;76.38;99133.31;4939456;29;20047;-69
2021/01/29 05:50:35;;;;;;;8.63;4.83;;;;;;;0.95;76.74;99121.19;4942178;29;20042;-70
2021/01/29 05:53:39;;;;;;;9.03;4.77;;;;;;;0.98;76.67;99117.75;4942706;28;20119;-68
2021/01/29 05:56:22;;;;;;;9.60;5.13;;;;;;;1.00;76.69;99126.44;4939838;29;20100;-70
2021/01/29 05:59:12;;;;;;;11.67;4.70;;;;;;;1.03;76.83;99118.66;4943750;29;20059;-70
2021/01/29 06:02:04;;;;;;;8.63;4.47;;;;;;;1.07;76.25;99123.00;4941891;28;20120;-70
2021/01/29 06:04:51;;;;;;;9.85;4.90;;;;;;;1.11;76.73;99113.53;4942522;29;20064;-69
2021/01/29 06:07:52;;;;;;;8.10;5.23;;;;;;;1.05;76.39;99106.56;4943794;29;20147;-69
2021/01/29 06:10:42;;;;;;;7.60;4.40;;;;;;;1.03;76.88;99106.53;4946574;29;20035;-69
2021/01/29 06:13:35;;;;;;;8.50;4.93;;;;;;;1.04;76.03;99097.00;4939270;28;20042;-70
2021/01/29 06:16:31;;;;;;;8.13;4.73;;;;;;;1.07;76.61;99097.03;4945623;29;20483;-68
2021/01/29 06:19:26;;;;;;;7.87;4.37;;;;;;;1.11;76.33;99083.22;4942694;28;20043;-69
2021/01/29 06:22:11;;;;;;;8.53;5.27;;;;;;;1.13;75.85;99078.00;4948936;28;20048;-70
2021/01/29 06:25:18;;;;;;;8.27;5.57;;;;;;;1.09;76.14;99071.94;4943193;29;20043;-69
2021/01/29 06:28:20;;;;;;;8.97;5.07;;;;;;;1.08;76.10;99068.47;4941461;29;20047;-69
2021/01/29 06:31:14;;;;;;;11.27;5.13;;;;;;;1.09;76.42;99069.34;4939050;29;20482;-69
2021/01/29 06:34:06;;;;;;;8.10;5.03;;;;;;;1.02;76.64;99058.03;4939134;29;20489;-68
2021/01/29 06:36:48;;;;;;;7.03;4.77;;;;;;;1.04;76.30;99055.44;4938877;29;20048;-69
2021/01/29 06:39:27;;;;;;;8.53;5.47;;;;;;;1.04;76.09;99050.22;4940502;29;20040;-70
2021/01/29 06:42:07;;;;;;;9.23;5.83;;;;;;;1.05;76.19;99052.00;4943020;29;20050;-69
2021/01/29 06:44:54;;;;;;;8.43;4.87;;;;;;;1.05;75.90;99041.59;4942340;28;20042;-70
2021/01/29 06:47:47;;;;;;;8.43;5.20;;;;;;;1.06;75.45;99048.53;4946896;29;20504;-70
2021/01/29 06:50:23;;;;;;;8.50;4.88;;;;;;;1.05;75.88;99033.81;4951504;28;20035;-70
2021/01/29 06:53:07;;;;;;;9.00;5.13;;;;;;;1.00;75.54;99033.75;4945395;29;20374;-69
2021/01/29 06:55:57;;;;;;;8.40;5.70;;;;;;;1.01;75.69;99034.63;4941915;29;20525;-70
2021/01/29 06:58:53;;;;;;;9.53;6.03;;;;;;;0.99;75.49;99032.00;4952539;29;20389;-70
2021/01/29 07:01:36;;;;;;;9.20;5.00;;;;;;;1.01;76.14;99019.03;4942792;29;20035;-69
2021/01/29 07:04:34;;;;;;;8.27;5.37;;;;;;;0.98;75.32;99011.22;4942041;29;20045;-70
2021/01/29 07:07:11;;;;;;;11.27;5.80;;;;;;;0.95;76.27;99004.28;4941723;29;20090;-69
2021/01/29 07:09:57;;;;;;;9.83;5.73;;;;;;;0.98;75.47;99008.63;4942042;29;20085;-70
2021/01/29 07:12:32;;;;;;;8.33;5.53;;;;;;;0.99;75.68;99007.75;4944906;29;20458;-69
2021/01/29 07:15:01;;;;;;;9.77;6.30;;;;;;;1.02;75.34;99000.88;4939940;28;20036;-69
2021/01/29 07:18:08;;;;;;;9.03;5.27;;;;;;;1.04;75.08;99001.72;4952845;29;20035;-70
2021/01/29 07:20:55;;;;;;;10.27;5.83;;;;;;;1.09;75.48;99004.38;4941741;29;20114;-70
2021/01/29 07:23:34;;;;;;;7.50;4.97;;;;;;;1.07;75.11;98995.69;4944199;29;20035;-70
2021/01/29 07:26:29;;;;;;;9.27;5.33;;;;;;;1.03;74.99;98993.94;4944747;28;20436;-70
2021/01/29 07:29:09;;;;;;;9.47;4.87;;;;;;;1.09;75.47;98997.44;4941625;29;20085;-68
2021/01/29 07:31:43;;;;;;;12.47;6.47;;;;;;;1.18;75.60;98993.16;4941717;29;20032;-69
2021/01/29 07:34:48;;;;;;;8.70;5.10;;;;;;;1.17;74.36;98984.50;4942478;29;20409;-70
2021/01/29 07:37:38;;;;;;;10.60;5.40;;;;;;;1.16;74.69;98976.72;4943010;28;20062;-69
2021/01/29 07:40:24;;;;;;;9.20;5.57;;;;;;;1.19;74.94;98979.34;4941698;29;20097;-69
2021/01/29 07:43:04;;;;;;;7.70;5.23;;;;;;;1.29;75.29;98966.41;4944593;29;20096;-70
2021/01/29 07:46:08;;;;;;;9.20;5.40;;;;;;;1.29;74.15;98969.00;4941086;29;20047;-69
2021/01/29 07:48:59;;;;;;;7.67;4.77;;;;;;;1.31;74.09;98959.50;4941421;29;20031;-69
2021/01/29 07:51:45;;;;;;;8.07;5.03;;;;;;;1.29;74.33;98958.59;4945243;28;20050;-69
2021/01/29 07:54:31;;;;;;;8.57;5.47;;;;;;;1.34;74.42;98952.56;4948939;28;20114;-69
2021/01/29 07:57:29;;;;;;;8.73;4.83;;;;;;;1.38;74.28;98951.72;4951947;29;20055;-70
2021/01/29 08:00:20;;;;;;;8.67;5.07;;;;;;;1.37;73.75;98942.19;4950538;29;20042;-70
2021/01/29 08:03:10;;;;;;;8.80;5.17;;;;;;;1.39;74.62;98922.25;4943890;29;20042;-68
2021/01/29 08:05:49;;;;;;;9.87;5.87;;;;;;;1.49;73.96;98926.63;4940858;29;20410;-69
2021/01/29 08:08:27;;;;;;;8.10;5.07;;;;;;;1.58;73.64;98928.44;4942201;29;20113;-69
2021/01/29 08:10:56;;;;;;;7.60;4.90;;;;;;;1.66;73.40;98914.59;4950479;29;20046;-69
2021/01/29 08:13:35;;;;;;;9.17;4.97;;;;;;;1.68;73.73;98914.59;4944317;29;20118;-69
2021/01/29 08:16:33;;;;;;;9.37;5.00;;;;;;;1.67;73.00;98905.03;4944930;28;20077;-70
2021/01/29 08:19:07;;;;;;;9.52;6.07;;;;;;;1.69;73.71;98895.53;4940967;29;20093;-69
2021/01/29 08:21:53;;;;;;;9.45;5.45;;;;;;;1.75;73.26;98893.78;4940756;29;20114;-69
2021/01/29 08:24:55;;;;;;;10.03;5.50;;;;;;;1.82;72.83;98886.03;4942799;29;20046;-69
2021/01/29 08:27:55;;;;;;;8.82;5.38;;;;;;;1.82;72.67;98870.41;4940996;29;20043;-69
2021/01/29 08:31:20;;;;;;;8.40;5.60;;;;;;;1.79;72.89;98866.06;4940489;29;20082;-70
2021/01/29 08:35:02;;;;;;;7.87;5.10;;;;;;;1.84;72.66;98864.34;4941186;29;20050;-69
2021/01/29 08:37:47;;;;;;;8.45;4.97;;;;;;;1.89;72.95;98854.81;4940429;29;20051;-70
2021/01/29 08:40:32;;;;;;;9.02;4.82;;;;;;;1.92;72.35;98851.38;4942059;29;20499;-70
2021/01/29 08:43:21;;;;;;;8.00;4.35;;;;;;;1.97;72.26;98842.69;4943685;29;20072;-69
2021/01/29 08:46:27;;;;;;;7.30;4.65;;;;;;;1.97;72.16;98842.69;4940201;29;20482;-68
2021/01/29 08:49:20;;;;;;;8.77;4.68;;;;;;;1.99;72.38;98837.47;4940408;29;20414;-69
2021/01/29 08:51:53;;;;;;;;;;;;;;;1.91;71.76;98839.19;4940881;29;20024;-70
2021/01/29 08:54:29;;;;;;;9.32;5.00;;;;;;;2.01;72.28;98830.53;4942554;29;19918;-69
2021/01/29 08:57:21;;;;;;;11.60;6.25;;;;;;;2.06;72.91;98827.97;4943311;28;20031;-68
2021/01/29 08:59:47;;;;;;;12.43;8.02;;;;;;;2.13;72.61;98816.69;4940341;29;20432;-69
2021/01/29 09:02:50;;;;;;;8.05;4.90;;;;;;;2.17;71.98;98821.91;4941618;29;20050;-70
2021/01/29 09:05:26;;;;;;;8.40;4.63;;;;;;;2.14;71.95;98816.66;4940985;29;20090;-69
2021/01/29 09:08:01;;;;;;;7.20;4.45;;;;;;;2.22;71.91;98808.00;4940253;29;20047;-70
2021/01/29 09:10:59;;;;;;;9.30;4.40;;;;;;;2.22;71.83;98811.47;4943384;29;20489;-69
2021/01/29 09:13:25;;;;;;;7.60;4.13;;;;;;;2.23;71.69;98805.41;4940497;28;20063;-69
2021/01/29 09:15:59;;;;;;;7.40;4.97;;;;;;;2.27;71.79;98796.72;4939819;29;20043;-69
2021/01/29 09:18:56;;;;;;;8.10;5.28;;;;;;;2.29;71.86;98795.00;4943264;28;20059;-69
2021/01/29 09:21:34;;;;;;;10.35;5.22;;;;;;;2.43;71.96;98792.38;4947549;28;20094;-69
2021/01/29 09:24:08;;;;;;;8.35;5.93;;;;;;;2.51;71.51;98788.00;4940019;29;20560;-69
2021/01/29 09:27:05;;;;;;;8.77;5.57;;;;;;;2.55;71.52;98792.34;4939511;29;20043;-70
2021/01/29 09:29:38;;;;;;;7.00;4.88;;;;;;;2.58;71.52;98787.13;4939644;29;20061;-69
2021/01/29 09:32:07;;;;;;;8.52;5.03;;;;;;;2.64;71.39;98786.25;4940040;29;20027;-70
2021/01/29 09:34:42;;;;;;;7.65;5.22;;;;;;;2.70;70.51;98783.66;4943099;28;20047;-70
2021/01/29 09:37:10;;;;;;;7.07;4.25;;;;;;;2.71;71.31;98777.56;4942088;28;20485;-69
2021/01/29 09:39:56;;;;;;;9.13;5.05;;;;;;;2.74;70.73;98768.88;4939658;29;20032;-69
2021/01/29 09:42:29;;;;;;;7.55;4.90;;;;;;;2.78;70.70;98778.41;4941413;29;20126;-69
2021/01/29 09:45:00;;;;;;;7.32;4.90;;;;;;;2.76;69.84;98767.13;4941173;28;20077;-69
2021/01/29 09:47:27;;;;;;;8.27;4.80;;;;;;;2.78;70.86;98765.41;4937963;29;20039;-70
2021/01/29 09:50:08;;;;;;;10.77;5.32;;;;;;;2.70;70.45;98764.53;4937578;29;20058;-70
2021/01/29 09:53:01;;;;;;;7.15;5.05;;;;;;;2.71;70.73;98753.25;4936415;29;20090;-69
2021/01/29 09:55:51;;;;;;;8.90;5.28;;;;;;;2.75;70.78;98752.34;4940681;28;20103;-69
2021/01/29 09:58:17;;;;;;;11.35;7.32;;;;;;;2.79;71.15;98749.75;4940759;28;20433;-69
2021/01/29 10:00:45;;;;;;;8.48;5.85;;;;;;;2.84;70.60;98749.72;4943140;28;20046;-69
2021/01/29 10:03:24;;;;;;;9.30;5.20;;;;;;;2.83;69.65;98750.63;4946246;29;20047;-69
2021/01/29 10:05:54;;;;;;;8.60;6.13;;;;;;;2.89;69.88;98739.31;4950172;28;20035;-70
2021/01/29 10:08:28;;;;;;;6.47;4.57;;;;;;;2.90;69.89;98746.22;4941059;28;20118;-69
2021/01/29 10:11:04;;;;;;;7.32;5.03;;;;;;;2.92;69.55;98745.34;4943530;28;20158;-70
2021/01/29 10:13:55;;;;;;;7.63;5.00;;;;;;;2.88;69.40;98743.63;4939313;29;20553;-70
2021/01/29 10:16:23;;;;;;;8.73;5.07;;;;;;;2.90;70.03;98743.63;4940323;29;20569;-69
2021/01/29 10:19:12;;;;;;;7.75;5.30;;;;;;;2.87;69.93;98741.91;4942765;28;20437;-68
2021/01/29 10:22:06;;;;;;;11.27;6.50;;;;;;;2.88;70.29;98730.59;4937792;29;20039;-69
2021/01/29 10:24:40;;;;;;;12.30;8.02;;;;;;;2.95;70.25;98728.84;4939176;29;20177;-70
2021/01/29 10:27:13;;;;;;;18.50;10.55;;;;;;;2.99;70.23;98726.22;4939407;28;20032;-69
2021/01/29 10:29:44;;;;;;;9.80;6.82;;;;;;;2.97;69.86;98722.75;4942305;28;20658;-70
2021/01/29 10:32:19;;;;;;;8.95;6.18;;;;;;;2.98;69.87;98714.03;4941224;28;20035;-69
2021/01/29 10:35:08;;;;;;;10.77;6.47;;;;;;;2.94;69.77;98707.13;4938953;29;20043;-69
2021/01/29 10:37:43;;;;;;;10.48;5.90;;;;;;;2.93;70.77;98700.16;4938968;29;20444;-69
2021/01/29 10:40:43;;;;;;;10.73;5.70;;;;;;;2.91;69.89;98699.34;4939841;29;20127;-69
2021/01/29 10:43:23;;;;;;;9.45;6.85;;;;;;;2.91;70.12;98696.72;4939124;28;20036;-69
2021/01/29 10:46:16;;;;;;;8.60;5.40;;;;;;;3.00;69.92;98691.47;4946873;29;20049;-69
2021/01/29 10:48:57;;;;;;;11.70;6.38;;;;;;;3.00;69.85;98688.84;4938447;29;20036;-69
2021/01/29 10:51:55;;;;;;;10.27;6.30;;;;;;;3.08;69.60;98673.16;4939035;29;20413;-70
2021/01/29 10:54:23;;;;;;;9.88;6.47;;;;;;;3.06;69.64;98672.31;4941209;29;20508;-69
2021/01/29 10:56:50;;;;;;;8.93;5.40;;;;;;;3.07;69.57;98669.72;4941786;28;20047;-69
2021/01/29 10:59:34;;;;;;;9.40;6.63;;;;;;;2.99;69.28;98668.03;4940003;28;20051;-69
2021/01/29 11:02:04;;;;;;;9.90;5.47;;;;;;;3.07;69.44;98659.28;4946740;28;20048;-70
2021/01/29 11:04:44;;;;;;;10.18;6.10;;;;;;;3.12;69.36;98655.75;4938859;29;20039;-70
2021/01/29 11:07:33;;;;;;;7.90;5.47;;;;;;;3.13;69.84;98654.91;4943365;29;20036;-70
2021/01/29 11:10:15;;;;;;;9.30;5.88;;;;;;;3.15;69.59;98647.94;4938609;29;20497;-70
2021/01/29 11:12:53;;;;;;;9.68;6.03;;;;;;;3.13;69.55;98649.69;4938489;29;20043;-71
2021/01/29 11:15:24;;;;;;;7.95;5.35;;;;;;;3.13;69.37;98644.47;4940412;29;20044;-70
2021/01/29 11:17:56;;;;;;;8.32;5.15;;;;;;;3.11;69.34;98641.00;4941638;28;20036;-71
2021/01/29 11:20:28;;;;;;;7.85;5.13;;;;;;;3.13;69.48;98645.34;4939162;28;20043;-70
2021/01/29 11:23:02;;;;;;;31.48;18.90;;;;;;;3.14;69.96;98641.84;4942747;29;20748;-71
2021/01/29 11:25:44;;;;;;;11.80;7.75;;;;;;;3.06;69.50;98635.81;4936772;29;20047;-71
2021/01/29 11:28:18;;;;;;;10.18;6.15;;;;;;;3.00;69.54;98633.25;4940608;29;20440;-71
2021/01/29 11:31:37;;;;;;;10.77;5.95;;;;;;;2.88;70.05;98634.19;4944785;28;20063;-71
2021/01/29 11:34:03;;;;;;;9.88;5.78;;;;;;;2.90;70.02;98628.97;4972923;28;20050;-70
2021/01/29 11:36:36;;;;;;;9.52;5.68;;;;;;;2.88;70.35;98623.75;4972503;28;20074;-71
2021/01/29 11:39:19;;;;;;;10.55;6.18;;;;;;;2.85;70.55;98614.22;4952664;28;20395;-70
2021/01/29 11:42:07;;;;;;;10.98;6.07;;;;;;;2.89;70.83;98619.44;4940101;28;20131;-70
2021/01/29 11:44:48;;;;;;;9.32;6.18;;;;;;;2.85;70.61;98613.38;4941496;29;20047;-70
2021/01/29 11:47:40;;;;;;;10.43;6.35;;;;;;;2.87;70.57;98610.75;4942516;29;20489;-70
2021/01/29 11:50:27;;;;;;;9.32;5.70;;;;;;;2.87;70.83;98609.00;4944220;28;20046;-71
2021/01/29 11:53:18;;;;;;;9.00;5.53;;;;;;;2.87;70.75;98606.41;4945874;29;20485;-70
2021/01/29 11:55:47;;;;;;;13.38;8.18;;;;;;;2.87;71.92;98606.41;4941080;29;20044;-70
2021/01/29 11:58:29;;;;;;;16.48;8.82;;;;;;;2.98;71.83;98601.13;4942528;29;20506;-70
2021/01/29 12:01:04;;;;;;;10.40;6.63;;;;;;;2.98;71.38;98606.34;4944513;29;20075;-70
2021/01/29 12:03:44;;;;;;;8.50;5.05;;;;;;;2.98;71.19;98601.13;4941128;29;20378;-70
2021/01/29 12:06:32;;;;;;;6.40;4.10;;;;;;;2.99;70.82;98601.13;4943589;29;20557;-70
2021/01/29 12:09:26;;;;;;;8.90;5.22;;;;;;;2.97;70.93;98596.81;4949329;29;20050;-70
2021/01/29 12:11:57;;;;;;;7.43;4.20;;;;;;;2.94;71.19;98595.09;4939327;29;20043;-70
2021/01/29 12:14:35;;;;;;;6.82;3.97;;;;;;;2.91;71.53;98591.63;4941956;28;20047;-70
2021/01/29 12:17:05;;;;;;;6.68;3.28;;;;;;;2.89;71.37;98594.25;4942364;28;20494;-70
2021/01/29 12:19:41;;;;;;;5.57;3.30;;;;;;;2.84;71.49;98589.06;4939575;29;20135;-71
2021/01/29 12:22:44;;;;;;;7.40;3.47;;;;;;;2.79;71.91;98583.00;4945666;28;20046;-70
2021/01/29 12:25:49;;;;;;;9.20;4.38;;;;;;;2.74;71.73;98583.91;4949167;29;20118;-70
2021/01/29 12:28:45;;;;;;;7.25;4.10;;;;;;;2.60;72.38;98586.59;4942857;29;20402;-70
2021/01/29 12:31:24;;;;;;;7.03;3.83;;;;;;;2.55;72.71;98575.34;4949449;29;20039;-70
2021/01/29 12:34:08;;;;;;;5.53;2.92;;;;;;;2.52;72.80;98572.75;4944004;28;20043;-70
2021/01/29 12:36:37;;;;;;;5.43;3.20;;;;;;;2.53;73.13;98564.06;4944307;29;20096;-70
2021/01/29 12:39:23;;;;;;;6.95;4.25;;;;;;;2.53;73.32;98566.66;4951095;28;20056;-70
2021/01/29 12:41:59;;;;;;;6.50;3.08;;;;;;;2.53;73.12;98561.47;4940668;29;20513;-70
2021/01/29 12:44:52;;;;;;;5.22;2.70;;;;;;;2.45;73.34;98553.69;4943846;29;20035;-70
2021/01/29 12:47:23;;;;;;;;;;;;;;;2.38;73.44;98555.47;4942020;28;20119;-70
2021/01/29 12:50:38;;;;;;;5.25;3.03;;;;;;;2.31;73.75;98542.50;4940412;28;19922;-70
2021/01/29 12:53:17;;;;;;;4.82;2.40;;;;;;;2.28;73.77;98545.09;4940520;29;20459;-70
2021/01/29 12:55:51;;;;;;;4.25;2.30;;;;;;;2.25;74.00;98547.69;4943105;28;20107;-70
2021/01/29 12:58:17;;;;;;;6.28;2.88;;;;;;;2.25;74.08;98537.28;4941607;28;20047;-70
2021/01/29 13:00:44;;;;;;;3.50;1.60;;;;;;;2.24;73.53;98543.38;4940161;29;20047;-70